Vingaren — OZ2131 — position and weather

sailwx.info

Track history (hours):
 
Tides and Currents Weather Stations Pressure Air Temp Water Temp Dewpoint Dewpoint Depression Visibility Wind Speed Wind Dir Waves Ship Positions

Vingaren

Last reported at 2015-Jan-25 14:21 UTC. Time now 2015-Jan-25 20:19 UTC.
Position N 59°37' E 023°10'.

Length 89 m; draft 6.4 m.

Type: Cargo ship. MMSI: 231844000.

Date/timePositionNaut miles runAvg speedWind from/ knotsBaromVisibWave heightAir tempDewpointWater temp
2015-Jan-25 14:21N 59°37' E 023°10'8 9.6
2015-Jan-25 13:28N 59°39' E 023°26'9 9.6
2015-Jan-25 12:29N 59°41' E 023°44'30 9.6
2015-Jan-25 09:22N 59°48' E 024°42'3 0.1
2015-Jan-24 01:11N 59°45' E 024°44'710.6
2015-Jan-24 00:33N 59°44' E 024°31'37910.2
2015-Jan-22 11:13N 55°39' E 015°29'711.0
2015-Jan-22 10:33N 55°36' E 015°17'1010.4
2015-Jan-22 09:33N 55°31' E 015°01'1110.7
2015-Jan-22 08:33N 55°25' E 014°45'1110.6
2015-Jan-22 07:33N 55°18' E 014°31'10 9.6
2015-Jan-22 06:33N 55°12' E 014°19'1010.0
2015-Jan-22 05:33N 55°11' E 014°01'10 9.8
2015-Jan-22 04:33N 55°11' E 013°44'10 9.5
2015-Jan-22 03:33N 55°12' E 013°27'10 9.4
2015-Jan-22 02:32N 55°13' E 013°10'9 9.7
2015-Jan-22 01:33N 55°14' E 012°54'10 9.9
2015-Jan-22 00:33N 55°18' E 012°38'1010.2
2015-Jan-21 23:33N 55°28' E 012°41'710.2
2015-Jan-21 22:50N 55°36' E 012°42'1 9.7
2015-Jan-21 22:46N 55°36' E 012°42'2 9.6
2015-Jan-21 22:33N 55°38' E 012°42'1010.0
2015-Jan-21 21:33N 55°48' E 012°40'10 9.7
2015-Jan-21 20:33N 55°58' E 012°40'4 3.7
2015-Jan-21 19:31N 56°02' E 012°41'0 0.0
2015-Jan-21 18:31N 56°02' E 012°41'0 0.0
2015-Jan-21 17:31N 56°02' E 012°41'0 0.0
2015-Jan-21 16:34N 56°02' E 012°41'0 0.0
2015-Jan-21 15:34N 56°02' E 012°41'0 0.0
2015-Jan-21 14:33N 56°02' E 012°41'0 0.0
2015-Jan-21 13:33N 56°02' E 012°41'0 0.0
2015-Jan-21 12:33N 56°02' E 012°41'0 0.0
2015-Jan-21 11:33N 56°02' E 012°41'0 0.0
2015-Jan-21 10:33N 56°02' E 012°41'0 0.0
2015-Jan-21 09:30N 56°02' E 012°41'0 0.0
2015-Jan-21 08:33N 56°02' E 012°41'0 0.0
2015-Jan-21 07:33N 56°02' E 012°41'0 0.0
2015-Jan-21 06:33N 56°02' E 012°41'0 0.0
2015-Jan-21 05:33N 56°02' E 012°41'0 0.0
2015-Jan-21 04:33N 56°02' E 012°41'0 0.0
2015-Jan-21 03:33N 56°02' E 012°41'0 0.0
2015-Jan-21 02:33N 56°02' E 012°41'0 0.0
2015-Jan-21 01:33N 56°02' E 012°41'0 0.0
2015-Jan-21 00:33N 56°02' E 012°41'0 0.0
2015-Jan-20 23:33N 56°02' E 012°41'0 0.0
2015-Jan-20 22:33N 56°02' E 012°41'0 0.0
2015-Jan-20 21:33N 56°02' E 012°41'0 0.0
2015-Jan-20 20:33N 56°02' E 012°41'0 0.0
2015-Jan-20 19:33N 56°02' E 012°41'0 0.0
2015-Jan-20 18:33N 56°02' E 012°41'0 0.0
2015-Jan-20 17:33N 56°02' E 012°41'0 0.0
2015-Jan-20 16:33N 56°02' E 012°41'0 0.0
2015-Jan-20 15:33N 56°02' E 012°41'0 0.0
2015-Jan-20 14:33N 56°02' E 012°41'0 0.0
2015-Jan-20 13:33N 56°02' E 012°41'0 0.0
2015-Jan-20 12:33N 56°02' E 012°41'0 0.0
2015-Jan-20 11:33N 56°02' E 012°41'0 0.0
2015-Jan-20 10:33N 56°02' E 012°41'0 0.0
2015-Jan-20 09:33N 56°02' E 012°41'0 0.0
2015-Jan-20 08:33N 56°02' E 012°41'0 0.0
2015-Jan-20 07:33N 56°02' E 012°41'0 0.0
2015-Jan-20 06:33N 56°02' E 012°41'6 5.9
2015-Jan-20 05:33N 55°56' E 012°44'9 9.4
2015-Jan-20 04:33N 55°47' E 012°42'1010.2
2015-Jan-20 03:33N 55°37' E 012°42'1010.1
2015-Jan-20 02:33N 55°27' E 012°42'10 9.6
2015-Jan-20 01:33N 55°17' E 012°40'10 9.6
2015-Jan-20 00:33N 55°07' E 012°41'2010.1
2015-Jan-19 22:33N 54°47' E 012°44'10 9.6
2015-Jan-19 21:33N 54°40' E 012°32'10 9.7
2015-Jan-19 20:33N 54°35' E 012°19'1010.0
2015-Jan-19 19:33N 54°26' E 012°11'9 9.3
2015-Jan-19 18:33N 54°23' E 011°56'1010.0
2015-Jan-19 17:33N 54°18' E 011°41'1010.2
2015-Jan-19 16:33N 54°12' E 011°28'9 9.1
2015-Jan-19 15:34N 54°03' E 011°25'7 6.7
2015-Jan-19 14:33N 53°56' E 011°25'2 2.0
2015-Jan-19 13:33N 53°54' E 011°27'0 0.0
2015-Jan-19 12:33N 53°54' E 011°27'0 0.0
2015-Jan-19 11:33N 53°54' E 011°27'0 0.0
2015-Jan-19 10:33N 53°54' E 011°27'0 0.0
2015-Jan-19 09:33N 53°54' E 011°27'0 0.0
2015-Jan-19 08:33N 53°54' E 011°27'0 0.0
2015-Jan-19 07:33N 53°54' E 011°27'0 0.0
2015-Jan-19 06:33N 53°54' E 011°27'0 0.0
2015-Jan-19 05:33N 53°54' E 011°27'0 0.0
2015-Jan-19 04:33N 53°54' E 011°27'0 0.0
2015-Jan-19 03:33N 53°54' E 011°27'0 0.0
2015-Jan-19 02:33N 53°54' E 011°27'0 0.0
2015-Jan-19 01:33N 53°54' E 011°27'0 0.0
2015-Jan-19 00:33N 53°54' E 011°27'0 0.0
2015-Jan-18 23:33N 53°54' E 011°27'0 0.0
2015-Jan-18 22:32N 53°54' E 011°27'0 0.0
2015-Jan-18 21:32N 53°54' E 011°27'0 0.0
2015-Jan-18 20:32N 53°54' E 011°27'0 0.0
2015-Jan-18 19:32N 53°54' E 011°27'0 0.0
2015-Jan-18 18:32N 53°54' E 011°27'0 0.0
2015-Jan-18 17:32N 53°54' E 011°27'0 0.0
2015-Jan-18 16:32N 53°54' E 011°27'0 0.0
2015-Jan-18 15:32N 53°54' E 011°27'0 0.0
2015-Jan-18 14:32N 53°54' E 011°27'0 0.0
2015-Jan-18 13:29N 53°54' E 011°27'0 0.0
2015-Jan-18 12:32N 53°54' E 011°27'0 0.0
2015-Jan-18 11:32N 53°54' E 011°27'0 0.0
2015-Jan-18 10:32N 53°54' E 011°27'0 0.0
2015-Jan-18 09:32N 53°54' E 011°27'0 0.0
2015-Jan-18 08:32N 53°54' E 011°27'0 0.0
2015-Jan-18 07:32N 53°54' E 011°27'0 0.0
2015-Jan-18 06:32N 53°54' E 011°27'0 0.0
2015-Jan-18 05:32N 53°54' E 011°27'0 0.0
2015-Jan-18 04:32N 53°54' E 011°27'0 0.0
2015-Jan-18 03:32N 53°54' E 011°27'0 0.0
2015-Jan-18 02:26N 53°54' E 011°27'0 0.0
2015-Jan-18 01:32N 53°54' E 011°27'0 0.0
2015-Jan-18 00:32N 53°54' E 011°27'0 0.0
2015-Jan-17 23:32N 53°54' E 011°27'0 0.0
2015-Jan-17 22:32N 53°54' E 011°27'0 0.0
2015-Jan-17 21:32N 53°54' E 011°27'0 0.0
2015-Jan-17 20:32N 53°54' E 011°27'0 0.0
2015-Jan-17 19:32N 53°54' E 011°27'0 0.0
2015-Jan-17 18:29N 53°54' E 011°27'0 0.0
2015-Jan-17 17:32N 53°54' E 011°27'0 0.0
2015-Jan-17 16:32N 53°54' E 011°27'0 0.0
2015-Jan-17 15:32N 53°54' E 011°27'0 0.0
2015-Jan-17 14:32N 53°54' E 011°27'0 0.0
2015-Jan-17 13:31N 53°54' E 011°27'0 0.0
2015-Jan-17 12:31N 53°54' E 011°27'0 0.0
2015-Jan-17 11:31N 53°54' E 011°27'0 0.0
2015-Jan-17 10:31N 53°54' E 011°27'0 0.0
2015-Jan-17 09:31N 53°54' E 011°27'0 0.0
2015-Jan-17 08:31N 53°54' E 011°27'0 0.0
2015-Jan-17 07:31N 53°54' E 011°27'0 0.0
2015-Jan-17 06:31N 53°54' E 011°27'0 0.0
2015-Jan-17 05:28N 53°54' E 011°27'0 0.0
2015-Jan-17 04:31N 53°54' E 011°27'0 0.0
2015-Jan-17 03:31N 53°54' E 011°27'0 0.0
2015-Jan-17 02:31N 53°54' E 011°27'0 0.0
2015-Jan-17 01:31N 53°54' E 011°27'0 0.1
2015-Jan-17 00:28N 53°54' E 011°27'0 0.0
2015-Jan-16 23:31N 53°54' E 011°27'0 0.0
2015-Jan-16 22:31N 53°54' E 011°27'0 0.0
2015-Jan-16 21:31N 53°54' E 011°27'0 0.0
2015-Jan-16 20:31N 53°54' E 011°27'0 0.0
2015-Jan-16 19:31N 53°54' E 011°27'0 0.0
2015-Jan-16 18:31N 53°54' E 011°27'0 0.0
2015-Jan-16 17:31N 53°54' E 011°27'0 0.0
2015-Jan-16 16:31N 53°54' E 011°27'2 2.1
2015-Jan-16 15:34N 53°56' E 011°25'8 8.1
2015-Jan-16 14:33N 54°04' E 011°25'2 1.8
2015-Jan-16 13:31N 54°06' E 011°25'0 0.0
2015-Jan-16 12:31N 54°06' E 011°25'0 0.0
2015-Jan-16 11:31N 54°06' E 011°25'0 0.0
2015-Jan-16 10:31N 54°06' E 011°25'0 0.0
2015-Jan-16 09:31N 54°06' E 011°25'0 0.0
2015-Jan-16 08:31N 54°06' E 011°25'0 0.0
2015-Jan-16 07:31N 54°06' E 011°25'0 0.0
2015-Jan-16 06:31N 54°06' E 011°25'0 0.0
2015-Jan-16 05:31N 54°06' E 011°25'0 0.0
2015-Jan-16 04:31N 54°06' E 011°25'0 0.0
2015-Jan-16 03:31N 54°06' E 011°25'0 0.0
2015-Jan-16 02:31N 54°06' E 011°25'0 0.0
2015-Jan-16 01:31N 54°06' E 011°25'0 0.0
2015-Jan-16 00:31N 54°06' E 011°25'0 0.0
2015-Jan-15 23:31N 54°06' E 011°25'0 0.0
2015-Jan-15 22:31N 54°06' E 011°25'0 0.0
2015-Jan-15 21:31N 54°06' E 011°25'5 5.4
2015-Jan-15 20:33N 54°11' E 011°24'1110.5
2015-Jan-15 19:33N 54°22' E 011°24'10 9.7
2015-Jan-15 18:33N 54°31' E 011°23'1110.7
2015-Jan-15 17:33N 54°35' E 011°06'1411.6
2015-Jan-15 16:21N 54°34' E 010°42'910.8
2015-Jan-15 15:31N 54°37' E 010°27'1010.3
2015-Jan-15 14:33N 54°45' E 010°18'  
Track history (hours):
 
Tides and Currents Weather Stations Pressure Air Temp Water Temp Dewpoint Dewpoint Depression Visibility Wind Speed Wind Dir Waves Ship Positions

Vingaren

Last reported at 2015-Jan-25 14:21 UTC. Time now 2015-Jan-25 20:19 UTC.
Position N 59°37' E 023°10'.

Length 89 m; draft 6.4 m.

Type: Cargo ship. MMSI: 231844000.

Date/timePositionNaut miles runAvg speedWind from/ knotsBaromVisibWave heightAir tempDewpointWater temp
2015-Jan-25 14:21N 59°37' E 023°10'8 9.6
2015-Jan-25 13:28N 59°39' E 023°26'9 9.6
2015-Jan-25 12:29N 59°41' E 023°44'30 9.6
2015-Jan-25 09:22N 59°48' E 024°42'3 0.1
2015-Jan-24 01:11N 59°45' E 024°44'710.6
2015-Jan-24 00:33N 59°44' E 024°31'37910.2
2015-Jan-22 11:13N 55°39' E 015°29'711.0
2015-Jan-22 10:33N 55°36' E 015°17'1010.4
2015-Jan-22 09:33N 55°31' E 015°01'1110.7
2015-Jan-22 08:33N 55°25' E 014°45'1110.6
2015-Jan-22 07:33N 55°18' E 014°31'10 9.6
2015-Jan-22 06:33N 55°12' E 014°19'1010.0
2015-Jan-22 05:33N 55°11' E 014°01'10 9.8
2015-Jan-22 04:33N 55°11' E 013°44'10 9.5
2015-Jan-22 03:33N 55°12' E 013°27'10 9.4
2015-Jan-22 02:32N 55°13' E 013°10'9 9.7
2015-Jan-22 01:33N 55°14' E 012°54'10 9.9
2015-Jan-22 00:33N 55°18' E 012°38'1010.2
2015-Jan-21 23:33N 55°28' E 012°41'710.2
2015-Jan-21 22:50N 55°36' E 012°42'1 9.7
2015-Jan-21 22:46N 55°36' E 012°42'2 9.6
2015-Jan-21 22:33N 55°38' E 012°42'1010.0
2015-Jan-21 21:33N 55°48' E 012°40'10 9.7
2015-Jan-21 20:33N 55°58' E 012°40'4 3.7
2015-Jan-21 19:31N 56°02' E 012°41'0 0.0
2015-Jan-21 18:31N 56°02' E 012°41'0 0.0
2015-Jan-21 17:31N 56°02' E 012°41'0 0.0
2015-Jan-21 16:34N 56°02' E 012°41'0 0.0
2015-Jan-21 15:34N 56°02' E 012°41'0 0.0
2015-Jan-21 14:33N 56°02' E 012°41'0 0.0
2015-Jan-21 13:33N 56°02' E 012°41'0 0.0
2015-Jan-21 12:33N 56°02' E 012°41'0 0.0
2015-Jan-21 11:33N 56°02' E 012°41'0 0.0
2015-Jan-21 10:33N 56°02' E 012°41'0 0.0
2015-Jan-21 09:30N 56°02' E 012°41'0 0.0
2015-Jan-21 08:33N 56°02' E 012°41'0 0.0
2015-Jan-21 07:33N 56°02' E 012°41'0 0.0
2015-Jan-21 06:33N 56°02' E 012°41'0 0.0
2015-Jan-21 05:33N 56°02' E 012°41'0 0.0
2015-Jan-21 04:33N 56°02' E 012°41'0 0.0
2015-Jan-21 03:33N 56°02' E 012°41'0 0.0
2015-Jan-21 02:33N 56°02' E 012°41'0 0.0
2015-Jan-21 01:33N 56°02' E 012°41'0 0.0
2015-Jan-21 00:33N 56°02' E 012°41'0 0.0
2015-Jan-20 23:33N 56°02' E 012°41'0 0.0
2015-Jan-20 22:33N 56°02' E 012°41'0 0.0
2015-Jan-20 21:33N 56°02' E 012°41'0 0.0
2015-Jan-20 20:33N 56°02' E 012°41'0 0.0
2015-Jan-20 19:33N 56°02' E 012°41'0 0.0
2015-Jan-20 18:33N 56°02' E 012°41'0 0.0
2015-Jan-20 17:33N 56°02' E 012°41'0 0.0
2015-Jan-20 16:33N 56°02' E 012°41'0 0.0
2015-Jan-20 15:33N 56°02' E 012°41'0 0.0
2015-Jan-20 14:33N 56°02' E 012°41'0 0.0
2015-Jan-20 13:33N 56°02' E 012°41'0 0.0
2015-Jan-20 12:33N 56°02' E 012°41'0 0.0
2015-Jan-20 11:33N 56°02' E 012°41'0 0.0
2015-Jan-20 10:33N 56°02' E 012°41'0 0.0
2015-Jan-20 09:33N 56°02' E 012°41'0 0.0
2015-Jan-20 08:33N 56°02' E 012°41'0 0.0
2015-Jan-20 07:33N 56°02' E 012°41'0 0.0
2015-Jan-20 06:33N 56°02' E 012°41'6 5.9
2015-Jan-20 05:33N 55°56' E 012°44'9 9.4
2015-Jan-20 04:33N 55°47' E 012°42'1010.2
2015-Jan-20 03:33N 55°37' E 012°42'1010.1
2015-Jan-20 02:33N 55°27' E 012°42'10 9.6
2015-Jan-20 01:33N 55°17' E 012°40'10 9.6
2015-Jan-20 00:33N 55°07' E 012°41'2010.1
2015-Jan-19 22:33N 54°47' E 012°44'10 9.6
2015-Jan-19 21:33N 54°40' E 012°32'10 9.7
2015-Jan-19 20:33N 54°35' E 012°19'1010.0
2015-Jan-19 19:33N 54°26' E 012°11'9 9.3
2015-Jan-19 18:33N 54°23' E 011°56'1010.0
2015-Jan-19 17:33N 54°18' E 011°41'1010.2
2015-Jan-19 16:33N 54°12' E 011°28'9 9.1
2015-Jan-19 15:34N 54°03' E 011°25'7 6.7
2015-Jan-19 14:33N 53°56' E 011°25'2 2.0
2015-Jan-19 13:33N 53°54' E 011°27'0 0.0
2015-Jan-19 12:33N 53°54' E 011°27'0 0.0
2015-Jan-19 11:33N 53°54' E 011°27'0 0.0
2015-Jan-19 10:33N 53°54' E 011°27'0 0.0
2015-Jan-19 09:33N 53°54' E 011°27'0 0.0
2015-Jan-19 08:33N 53°54' E 011°27'0 0.0
2015-Jan-19 07:33N 53°54' E 011°27'0 0.0
2015-Jan-19 06:33N 53°54' E 011°27'0 0.0
2015-Jan-19 05:33N 53°54' E 011°27'0 0.0
2015-Jan-19 04:33N 53°54' E 011°27'0 0.0
2015-Jan-19 03:33N 53°54' E 011°27'0 0.0
2015-Jan-19 02:33N 53°54' E 011°27'0 0.0
2015-Jan-19 01:33N 53°54' E 011°27'0 0.0
2015-Jan-19 00:33N 53°54' E 011°27'0 0.0
2015-Jan-18 23:33N 53°54' E 011°27'0 0.0
2015-Jan-18 22:32N 53°54' E 011°27'0 0.0
2015-Jan-18 21:32N 53°54' E 011°27'0 0.0
2015-Jan-18 20:32N 53°54' E 011°27'0 0.0
2015-Jan-18 19:32N 53°54' E 011°27'0 0.0
2015-Jan-18 18:32N 53°54' E 011°27'0 0.0
2015-Jan-18 17:32N 53°54' E 011°27'0 0.0
2015-Jan-18 16:32N 53°54' E 011°27'0 0.0
2015-Jan-18 15:32N 53°54' E 011°27'0 0.0
2015-Jan-18 14:32N 53°54' E 011°27'0 0.0
2015-Jan-18 13:29N 53°54' E 011°27'0 0.0
2015-Jan-18 12:32N 53°54' E 011°27'0 0.0
2015-Jan-18 11:32N 53°54' E 011°27'0 0.0
2015-Jan-18 10:32N 53°54' E 011°27'0 0.0
2015-Jan-18 09:32N 53°54' E 011°27'0 0.0
2015-Jan-18 08:32N 53°54' E 011°27'0 0.0
2015-Jan-18 07:32N 53°54' E 011°27'0 0.0
2015-Jan-18 06:32N 53°54' E 011°27'0 0.0
2015-Jan-18 05:32N 53°54' E 011°27'0 0.0
2015-Jan-18 04:32N 53°54' E 011°27'0 0.0
2015-Jan-18 03:32N 53°54' E 011°27'0 0.0
2015-Jan-18 02:26N 53°54' E 011°27'0 0.0
2015-Jan-18 01:32N 53°54' E 011°27'0 0.0
2015-Jan-18 00:32N 53°54' E 011°27'0 0.0
2015-Jan-17 23:32N 53°54' E 011°27'0 0.0
2015-Jan-17 22:32N 53°54' E 011°27'0 0.0
2015-Jan-17 21:32N 53°54' E 011°27'0 0.0
2015-Jan-17 20:32N 53°54' E 011°27'0 0.0
2015-Jan-17 19:32N 53°54' E 011°27'0 0.0
2015-Jan-17 18:29N 53°54' E 011°27'0 0.0
2015-Jan-17 17:32N 53°54' E 011°27'0 0.0
2015-Jan-17 16:32N 53°54' E 011°27'0 0.0
2015-Jan-17 15:32N 53°54' E 011°27'0 0.0
2015-Jan-17 14:32N 53°54' E 011°27'0 0.0
2015-Jan-17 13:31N 53°54' E 011°27'0 0.0
2015-Jan-17 12:31N 53°54' E 011°27'0 0.0
2015-Jan-17 11:31N 53°54' E 011°27'0 0.0
2015-Jan-17 10:31N 53°54' E 011°27'0 0.0
2015-Jan-17 09:31N 53°54' E 011°27'0 0.0
2015-Jan-17 08:31N 53°54' E 011°27'0 0.0
2015-Jan-17 07:31N 53°54' E 011°27'0 0.0
2015-Jan-17 06:31N 53°54' E 011°27'0 0.0
2015-Jan-17 05:28N 53°54' E 011°27'0 0.0
2015-Jan-17 04:31N 53°54' E 011°27'0 0.0
2015-Jan-17 03:31N 53°54' E 011°27'0 0.0
2015-Jan-17 02:31N 53°54' E 011°27'0 0.0
2015-Jan-17 01:31N 53°54' E 011°27'0 0.1
2015-Jan-17 00:28N 53°54' E 011°27'0 0.0
2015-Jan-16 23:31N 53°54' E 011°27'0 0.0
2015-Jan-16 22:31N 53°54' E 011°27'0 0.0
2015-Jan-16 21:31N 53°54' E 011°27'0 0.0
2015-Jan-16 20:31N 53°54' E 011°27'0 0.0
2015-Jan-16 19:31N 53°54' E 011°27'0 0.0
2015-Jan-16 18:31N 53°54' E 011°27'0 0.0
2015-Jan-16 17:31N 53°54' E 011°27'0 0.0
2015-Jan-16 16:31N 53°54' E 011°27'2 2.1
2015-Jan-16 15:34N 53°56' E 011°25'8 8.1
2015-Jan-16 14:33N 54°04' E 011°25'2 1.8
2015-Jan-16 13:31N 54°06' E 011°25'0 0.0
2015-Jan-16 12:31N 54°06' E 011°25'0 0.0
2015-Jan-16 11:31N 54°06' E 011°25'0 0.0
2015-Jan-16 10:31N 54°06' E 011°25'0 0.0
2015-Jan-16 09:31N 54°06' E 011°25'0 0.0
2015-Jan-16 08:31N 54°06' E 011°25'0 0.0
2015-Jan-16 07:31N 54°06' E 011°25'0 0.0
2015-Jan-16 06:31N 54°06' E 011°25'0 0.0
2015-Jan-16 05:31N 54°06' E 011°25'0 0.0
2015-Jan-16 04:31N 54°06' E 011°25'0 0.0
2015-Jan-16 03:31N 54°06' E 011°25'0 0.0
2015-Jan-16 02:31N 54°06' E 011°25'0 0.0
2015-Jan-16 01:31N 54°06' E 011°25'0 0.0
2015-Jan-16 00:31N 54°06' E 011°25'0 0.0
2015-Jan-15 23:31N 54°06' E 011°25'0 0.0
2015-Jan-15 22:31N 54°06' E 011°25'0 0.0
2015-Jan-15 21:31N 54°06' E 011°25'5 5.4
2015-Jan-15 20:33N 54°11' E 011°24'1110.5
2015-Jan-15 19:33N 54°22' E 011°24'10 9.7
2015-Jan-15 18:33N 54°31' E 011°23'1110.7
2015-Jan-15 17:33N 54°35' E 011°06'1411.6
2015-Jan-15 16:21N 54°34' E 010°42'910.8
2015-Jan-15 15:31N 54°37' E 010°27'1010.3
2015-Jan-15 14:33N 54°45' E 010°18'  

Dump ship's entire track history